createdAt,value
2023-04-15T00:00:37.758Z,22.52
2023-04-15T00:03:05.457Z,21.08
2023-04-15T00:05:32.451Z,21.98
2023-04-15T00:07:58.992Z,24.20
2023-04-15T00:10:25.707Z,23.98
2023-04-15T00:12:52.522Z,24.95
2023-04-15T00:15:19.038Z,27.27
2023-04-15T00:17:45.900Z,26.48
2023-04-15T00:20:12.389Z,26.90
2023-04-15T00:22:38.645Z,30.02
2023-04-15T00:25:05.258Z,27.92
2023-04-15T00:27:31.594Z,27.80
2023-04-15T00:29:58.149Z,29.00
2023-04-15T00:32:24.483Z,29.92
2023-04-15T00:34:51.054Z,29.58
2023-04-15T00:37:17.324Z,24.40
2023-04-15T00:39:44.124Z,23.88
2023-04-15T00:42:10.584Z,22.90
2023-04-15T00:44:36.906Z,23.60
2023-04-15T00:47:04.258Z,20.15
2023-04-15T00:49:30.761Z,18.40
2023-04-15T00:51:57.192Z,19.95
2023-04-15T00:54:23.627Z,17.63
2023-04-15T00:56:49.909Z,14.23
2023-04-15T00:59:17.414Z,16.80
2023-04-15T01:01:44.378Z,13.48
2023-04-15T01:04:11.655Z,13.38
2023-04-15T01:06:38.462Z,12.88
2023-04-15T01:09:05.200Z,12.93
2023-04-15T01:11:34.169Z,13.88
2023-04-15T01:14:00.915Z,11.18
2023-04-15T01:16:28.729Z,11.77
2023-04-15T01:18:55.696Z,11.20
2023-04-15T01:21:22.486Z,12.00
2023-04-15T01:23:49.078Z,11.15
2023-04-15T01:26:16.327Z,12.80
2023-04-15T01:28:44.796Z,13.55
2023-04-15T01:31:13.479Z,18.52
2023-04-15T01:33:41.091Z,11.43
2023-04-15T01:36:08.716Z,13.18
2023-04-15T01:38:35.086Z,10.65
2023-04-15T01:41:01.459Z,9.88
2023-04-15T01:43:28.288Z,11.98
2023-04-15T01:45:54.983Z,10.02
2023-04-15T01:48:21.453Z,15.05
2023-04-15T01:50:47.758Z,14.38
2023-04-15T01:53:14.109Z,9.32
2023-04-15T01:55:41.088Z,12.75
2023-04-15T01:58:07.532Z,12.85
2023-04-15T02:00:33.952Z,12.27
2023-04-15T02:03:00.448Z,10.65
2023-04-15T02:05:26.913Z,12.95
2023-04-15T02:07:54.472Z,10.60
2023-04-15T02:10:21.003Z,14.02
2023-04-15T02:12:47.394Z,11.35
2023-04-15T02:15:13.727Z,13.48
2023-04-15T02:17:40.110Z,14.68
2023-04-15T02:20:06.908Z,10.75
2023-04-15T02:22:33.198Z,12.35
2023-04-15T02:24:59.521Z,10.55
2023-04-15T02:27:26.099Z,13.05
2023-04-15T02:29:52.408Z,12.15
2023-04-15T02:32:18.842Z,16.10
2023-04-15T02:34:45.215Z,13.48
2023-04-15T02:37:12.690Z,11.00
2023-04-15T02:39:39.069Z,15.90
2023-04-15T02:42:06.079Z,12.00
2023-04-15T02:44:32.898Z,11.02
2023-04-15T02:46:59.190Z,10.30
2023-04-15T02:49:25.871Z,9.68
2023-04-15T02:51:52.614Z,12.48
2023-04-15T02:54:19.745Z,11.85
2023-04-15T02:56:46.240Z,12.82
2023-04-15T02:59:13.018Z,11.07
2023-04-15T03:01:39.354Z,10.75
2023-04-15T03:04:07.788Z,13.45
2023-04-15T03:06:34.606Z,11.88
2023-04-15T03:09:02.484Z,10.32
2023-04-15T03:11:29.242Z,10.02
2023-04-15T03:13:55.702Z,15.40
2023-04-15T03:16:22.331Z,13.20
2023-04-15T03:18:48.742Z,14.80
2023-04-15T03:21:15.066Z,10.43
2023-04-15T03:23:41.429Z,14.32
2023-04-15T03:26:07.768Z,11.98
2023-04-15T03:28:34.118Z,12.05
2023-04-15T03:31:00.689Z,10.98
2023-04-15T03:33:27.078Z,10.82
2023-04-15T03:35:53.511Z,11.80
2023-04-15T03:38:19.820Z,12.45
2023-04-15T03:40:46.942Z,12.82
2023-04-15T03:43:13.296Z,14.05
2023-04-15T03:45:39.614Z,12.20
2023-04-15T03:48:16.567Z,12.90
2023-04-15T03:50:44.352Z,13.63
2023-04-15T03:53:10.761Z,10.85
2023-04-15T03:55:37.039Z,12.23
2023-04-15T03:58:03.459Z,12.50
2023-04-15T04:00:29.862Z,13.23
2023-04-15T04:02:56.446Z,11.73
2023-04-15T04:05:23.031Z,16.55
2023-04-15T04:07:49.429Z,12.23
2023-04-15T04:10:15.872Z,10.65
2023-04-15T04:12:42.186Z,16.75
2023-04-15T04:15:08.696Z,11.52
2023-04-15T04:17:35.060Z,11.70
2023-04-15T04:20:01.549Z,15.60
2023-04-15T04:22:27.917Z,12.80
2023-04-15T04:24:54.206Z,12.50
2023-04-15T04:27:20.666Z,14.20
2023-04-15T04:29:47.951Z,13.23
2023-04-15T04:32:14.453Z,13.43
2023-04-15T04:34:41.520Z,11.38
2023-04-15T04:37:07.850Z,14.00
2023-04-15T04:39:34.124Z,11.85
2023-04-15T04:42:01.159Z,12.65
2023-04-15T04:44:27.477Z,12.45
2023-04-15T04:46:53.821Z,12.75
2023-04-15T04:49:20.142Z,12.90
2023-04-15T04:51:48.440Z,12.60
2023-04-15T04:54:14.773Z,13.23
2023-04-15T04:56:41.472Z,11.23
2023-04-15T04:59:07.912Z,12.93
2023-04-15T05:01:34.362Z,13.30
2023-04-15T05:04:00.954Z,12.48
2023-04-15T05:06:27.791Z,13.40
2023-04-15T05:08:54.116Z,12.00
2023-04-15T05:11:20.965Z,10.80
2023-04-15T05:13:47.267Z,15.68
2023-04-15T05:16:13.556Z,14.00
2023-04-15T05:18:39.883Z,17.63
2023-04-15T05:21:06.740Z,12.77
2023-04-15T05:23:33.578Z,12.45
2023-04-15T05:25:59.938Z,15.23
2023-04-15T05:28:26.207Z,15.60
2023-04-15T05:30:52.715Z,14.07
2023-04-15T05:33:19.124Z,15.88
2023-04-15T05:35:45.499Z,12.93
2023-04-15T05:38:11.810Z,15.15
2023-04-15T05:40:38.138Z,14.48
2023-04-15T05:43:04.477Z,14.43
2023-04-15T05:45:30.768Z,14.85
2023-04-15T05:47:57.276Z,12.90
2023-04-15T05:50:23.626Z,14.95
2023-04-15T05:52:49.890Z,15.60
2023-04-15T05:55:16.328Z,14.30
2023-04-15T05:57:42.708Z,13.82
2023-04-15T06:00:10.078Z,13.70
2023-04-15T06:02:36.507Z,13.32
2023-04-15T06:05:03.568Z,15.32
2023-04-15T06:07:29.931Z,17.73
2023-04-15T06:09:56.264Z,13.73
2023-04-15T06:12:22.576Z,13.07
2023-04-15T06:14:48.917Z,15.10
2023-04-15T06:17:15.258Z,17.05
2023-04-15T06:19:41.740Z,16.33
2023-04-15T06:22:08.121Z,13.60
2023-04-15T06:24:34.810Z,13.45
2023-04-15T06:27:02.410Z,13.00
2023-04-15T06:29:28.798Z,16.17
2023-04-15T06:31:56.737Z,15.75
2023-04-15T06:34:23.094Z,17.23
2023-04-15T06:36:49.402Z,14.00
2023-04-15T06:39:15.711Z,14.50
2023-04-15T06:41:42.402Z,16.70
2023-04-15T06:44:08.724Z,13.50
2023-04-15T06:46:35.126Z,15.30
2023-04-15T06:49:01.807Z,15.25
2023-04-15T06:51:28.325Z,15.80
2023-04-15T06:53:54.685Z,15.35
2023-04-15T06:56:21.946Z,16.38
2023-04-15T06:58:48.222Z,16.92
2023-04-15T07:01:14.662Z,16.27
2023-04-15T07:03:41.971Z,16.02
2023-04-15T07:06:09.515Z,13.60
2023-04-15T07:08:35.911Z,13.10
2023-04-15T07:11:02.498Z,13.60
2023-04-15T07:13:31.014Z,18.20
2023-04-15T07:15:57.334Z,15.55
2023-04-15T07:18:23.888Z,15.70
2023-04-15T07:20:50.253Z,15.23
2023-04-15T07:23:16.648Z,14.43
2023-04-15T07:25:42.917Z,14.75
2023-04-15T07:28:09.193Z,15.00
2023-04-15T07:30:35.632Z,13.95
2023-04-15T07:33:02.902Z,13.38
2023-04-15T07:35:29.409Z,16.55
2023-04-15T07:37:56.227Z,13.07
2023-04-15T07:40:22.567Z,13.65
2023-04-15T07:42:49.542Z,12.60
2023-04-15T07:45:16.274Z,13.27
2023-04-15T07:47:42.662Z,12.70
2023-04-15T07:50:11.269Z,12.98
2023-04-15T07:52:40.354Z,11.45
2023-04-15T07:55:08.419Z,11.68
2023-04-15T07:57:35.391Z,10.38
2023-04-15T08:00:02.049Z,9.63
2023-04-15T08:02:28.592Z,12.18
2023-04-15T08:04:55.030Z,10.52
2023-04-15T08:07:21.427Z,8.73
2023-04-15T08:09:48.216Z,10.60
2023-04-15T08:12:14.859Z,13.68
2023-04-15T08:14:41.119Z,11.75
2023-04-15T08:17:07.541Z,9.52
2023-04-15T08:19:34.093Z,9.23
2023-04-15T08:22:00.585Z,11.73
2023-04-15T08:24:27.359Z,8.98
2023-04-15T08:26:53.814Z,8.35
2023-04-15T08:29:20.150Z,9.25
2023-04-15T08:31:47.706Z,8.52
2023-04-15T08:34:15.031Z,7.55
2023-04-15T08:36:43.172Z,8.07
2023-04-15T08:39:09.445Z,9.23
2023-04-15T08:41:49.931Z,8.95
2023-04-15T08:44:16.351Z,5.38
2023-04-15T08:46:42.813Z,7.47
2023-04-15T08:49:10.805Z,7.15
2023-04-15T08:51:37.663Z,6.68
2023-04-15T08:54:04.533Z,6.70
2023-04-15T08:56:32.872Z,8.05
2023-04-15T08:59:00.603Z,7.35
2023-04-15T09:01:27.366Z,7.05
2023-04-15T09:03:57.044Z,7.05
2023-04-15T09:06:23.690Z,6.63
2023-04-15T09:08:50.501Z,6.45
2023-04-15T09:11:19.994Z,6.88
2023-04-15T09:13:46.828Z,6.70
2023-04-15T09:16:13.566Z,10.48
2023-04-15T09:18:39.890Z,7.82
2023-04-15T09:21:11.223Z,7.13
2023-04-15T09:23:38.654Z,8.07
2023-04-15T09:26:05.617Z,10.15
2023-04-15T09:28:33.185Z,9.68
2023-04-15T09:31:00.268Z,7.63
2023-04-15T09:33:27.390Z,8.95
2023-04-15T09:36:01.467Z,6.95
2023-04-15T09:38:28.114Z,7.57
2023-04-15T09:40:54.970Z,7.32
2023-04-15T09:43:22.018Z,9.50
2023-04-15T09:45:52.188Z,7.22
2023-04-15T09:48:18.674Z,7.10
2023-04-15T09:50:45.078Z,6.10
2023-04-15T09:53:12.417Z,7.45
2023-04-15T09:55:38.858Z,5.38
2023-04-15T09:58:17.764Z,6.47
2023-04-15T10:00:44.319Z,5.90
2023-04-15T10:03:11.697Z,8.40
2023-04-15T10:05:38.742Z,7.75
2023-04-15T10:08:05.511Z,7.47
2023-04-15T10:10:33.244Z,8.63
2023-04-15T10:12:59.586Z,6.30
2023-04-15T10:15:26.896Z,8.02
2023-04-15T10:17:53.496Z,5.50
2023-04-15T10:20:20.834Z,6.90
2023-04-15T10:22:47.327Z,6.70
2023-04-15T10:25:15.627Z,6.20
2023-04-15T10:27:42.268Z,6.25
2023-04-15T10:30:09.183Z,5.30
2023-04-15T10:32:36.563Z,6.97
2023-04-15T10:35:04.174Z,5.68
2023-04-15T10:37:37.755Z,6.43
2023-04-15T10:40:22.475Z,5.57
2023-04-15T10:42:49.569Z,4.82
2023-04-15T10:45:16.871Z,12.05
2023-04-15T10:47:43.902Z,5.75
2023-04-15T10:50:10.589Z,5.70
2023-04-15T10:52:40.616Z,5.00
2023-04-15T10:55:15.561Z,4.90
2023-04-15T10:57:42.838Z,4.88
2023-04-15T11:00:09.215Z,7.65
2023-04-15T11:02:39.927Z,5.93
2023-04-15T11:05:07.415Z,6.10
2023-04-15T11:07:38.504Z,5.43
2023-04-15T11:10:25.486Z,5.03
2023-04-15T11:12:52.757Z,3.97
2023-04-15T11:15:34.188Z,4.70
2023-04-15T11:18:10.017Z,6.38
2023-04-15T11:20:37.100Z,6.38
2023-04-15T11:23:13.932Z,4.97
2023-04-15T11:25:41.882Z,6.47
2023-04-15T11:28:08.337Z,5.10
2023-04-15T11:30:35.773Z,4.28
2023-04-15T11:33:03.361Z,4.47
2023-04-15T11:35:30.240Z,4.57
2023-04-15T11:37:56.817Z,4.50
2023-04-15T11:40:23.785Z,4.40
2023-04-15T11:43:08.592Z,5.78
2023-04-15T11:45:36.005Z,4.78
2023-04-15T11:48:13.338Z,4.75
2023-04-15T11:50:41.110Z,4.68
2023-04-15T11:53:08.823Z,6.22
2023-04-15T11:55:46.911Z,4.20
2023-04-15T11:58:15.058Z,4.03
2023-04-15T12:00:46.384Z,4.22
2023-04-15T12:03:22.307Z,4.10
2023-04-15T12:06:08.330Z,5.45
2023-04-15T12:08:54.089Z,6.00
2023-04-15T12:11:26.613Z,4.85
2023-04-15T12:14:03.916Z,6.68
2023-04-15T12:16:30.606Z,4.35
2023-04-15T12:18:57.822Z,5.90
2023-04-15T12:21:24.927Z,4.63
2023-04-15T12:23:52.782Z,5.95
2023-04-15T12:26:26.064Z,5.53
2023-04-15T12:28:56.281Z,4.60
2023-04-15T12:31:23.666Z,4.30
2023-04-15T12:33:50.118Z,5.90
2023-04-15T12:36:16.649Z,4.95
2023-04-15T12:38:42.946Z,3.22
2023-04-15T12:41:09.300Z,5.00
2023-04-15T12:43:36.013Z,3.58
2023-04-15T12:46:02.750Z,4.50
2023-04-15T12:48:29.076Z,3.75
2023-04-15T12:50:55.482Z,5.25
2023-04-15T12:53:21.863Z,4.70
2023-04-15T12:55:48.415Z,5.97
2023-04-15T12:58:14.897Z,5.93
2023-04-15T13:00:41.296Z,7.22
2023-04-15T13:03:07.720Z,4.47
2023-04-15T13:05:34.165Z,3.55
2023-04-15T13:08:00.861Z,8.68
2023-04-15T13:10:28.272Z,6.22
2023-04-15T13:12:56.490Z,6.72
2023-04-15T13:15:23.053Z,7.15
2023-04-15T13:17:50.554Z,4.20
2023-04-15T13:20:17.447Z,6.82
2023-04-15T13:22:46.141Z,5.10
2023-04-15T13:25:12.526Z,4.32
2023-04-15T13:27:38.949Z,4.63
2023-04-15T13:30:06.069Z,4.32
2023-04-15T13:32:32.576Z,4.75
2023-04-15T13:34:59.414Z,4.53
2023-04-15T13:37:26.638Z,5.32
2023-04-15T13:39:52.925Z,5.38
2023-04-15T13:42:19.359Z,4.65
2023-04-15T13:44:45.764Z,4.40
2023-04-15T13:47:13.037Z,5.32
2023-04-15T13:49:39.424Z,6.68
2023-04-15T13:52:06.012Z,5.00
2023-04-15T13:54:37.139Z,4.20
2023-04-15T13:57:04.791Z,3.33
2023-04-15T13:59:31.207Z,4.22
2023-04-15T14:01:57.537Z,6.05
2023-04-15T14:04:24.298Z,5.78
2023-04-15T14:06:50.976Z,2.90
2023-04-15T14:09:17.486Z,3.70
2023-04-15T14:11:43.809Z,5.10
2023-04-15T14:14:10.086Z,2.28
2023-04-15T14:16:36.382Z,3.50
2023-04-15T14:19:02.989Z,3.72
2023-04-15T14:21:31.962Z,4.05
2023-04-15T14:23:58.728Z,4.18
2023-04-15T14:26:25.057Z,5.30
2023-04-15T14:28:51.554Z,3.67
2023-04-15T14:31:18.873Z,7.40
2023-04-15T14:33:46.265Z,4.75
2023-04-15T14:36:12.573Z,6.82
2023-04-15T14:38:39.834Z,5.28
2023-04-15T14:41:06.347Z,4.88
2023-04-15T14:43:33.398Z,5.20
2023-04-15T14:45:59.856Z,6.22
2023-04-15T14:48:26.350Z,4.97
2023-04-15T14:50:53.003Z,5.00
2023-04-15T14:53:19.374Z,6.43
2023-04-15T14:55:46.126Z,6.38
2023-04-15T14:58:12.508Z,6.07
2023-04-15T15:00:41.830Z,5.60
2023-04-15T15:03:12.630Z,5.80
2023-04-15T15:05:40.440Z,6.85
2023-04-15T15:08:08.028Z,7.00
2023-04-15T15:10:48.715Z,15.32
2023-04-15T15:13:17.125Z,8.10
2023-04-15T15:15:43.614Z,12.60
2023-04-15T15:18:10.400Z,9.05
2023-04-15T15:20:36.860Z,8.43
2023-04-15T15:23:03.242Z,7.38
2023-04-15T15:25:29.609Z,6.57
2023-04-15T15:27:57.275Z,6.65
2023-04-15T15:30:23.729Z,3.88
2023-04-15T15:32:50.271Z,7.43
2023-04-15T15:35:16.779Z,6.45
2023-04-15T15:37:43.504Z,5.97
2023-04-15T15:40:10.159Z,8.00
2023-04-15T15:42:36.484Z,6.88
2023-04-15T15:45:03.450Z,7.07
2023-04-15T15:47:29.815Z,6.82
2023-04-15T15:49:56.370Z,8.73
2023-04-15T15:52:22.653Z,4.55
2023-04-15T15:54:48.993Z,9.70
2023-04-15T15:57:15.311Z,11.38
2023-04-15T15:59:43.691Z,7.90
2023-04-15T16:02:10.879Z,8.95
2023-04-15T16:04:37.887Z,5.53
2023-04-15T16:07:04.584Z,7.43
2023-04-15T16:09:31.320Z,6.70
2023-04-15T16:11:57.848Z,6.53
2023-04-15T16:14:25.102Z,8.30
2023-04-15T16:16:51.845Z,13.70
2023-04-15T16:19:18.299Z,10.50
2023-04-15T16:21:45.290Z,16.90
2023-04-15T16:24:11.713Z,13.75
2023-04-15T16:26:38.042Z,7.22
2023-04-15T16:29:04.798Z,9.88
2023-04-15T16:31:31.433Z,7.20
2023-04-15T16:33:57.842Z,8.88
2023-04-15T16:36:24.178Z,5.57
2023-04-15T16:38:51.232Z,9.77
2023-04-15T16:41:18.649Z,11.20
2023-04-15T16:43:45.876Z,5.18
2023-04-15T16:46:12.269Z,8.45
2023-04-15T16:48:38.688Z,5.53
2023-04-15T16:51:05.219Z,6.22
2023-04-15T16:53:31.551Z,7.35
2023-04-15T16:55:57.897Z,7.43
2023-04-15T16:58:24.320Z,6.18
2023-04-15T17:00:51.200Z,4.90
2023-04-15T17:03:17.686Z,9.63
2023-04-15T17:05:44.047Z,7.45
2023-04-15T17:08:10.434Z,13.63
2023-04-15T17:10:36.740Z,6.75
2023-04-15T17:13:03.188Z,6.90
2023-04-15T17:15:29.744Z,9.48
2023-04-15T17:17:56.243Z,9.73
2023-04-15T17:20:22.781Z,5.35
2023-04-15T17:22:49.244Z,6.35
2023-04-15T17:25:15.605Z,6.70
2023-04-15T17:27:41.917Z,6.07
2023-04-15T17:30:08.528Z,5.22
2023-04-15T17:32:35.049Z,7.78
2023-04-15T17:35:02.886Z,6.47
2023-04-15T17:37:29.234Z,7.53
2023-04-15T17:39:56.422Z,9.50
2023-04-15T17:42:24.303Z,8.40
2023-04-15T17:44:50.673Z,6.07
2023-04-15T17:47:17.197Z,7.88
2023-04-15T17:49:43.783Z,6.25
2023-04-15T17:52:10.155Z,5.35
2023-04-15T17:54:36.575Z,5.35
2023-04-15T17:57:03.241Z,8.80
2023-04-15T17:59:29.875Z,7.88
2023-04-15T18:01:56.289Z,9.50
2023-04-15T18:04:25.726Z,8.50
2023-04-15T18:06:52.858Z,7.55
2023-04-15T18:09:19.116Z,5.63
2023-04-15T18:11:47.331Z,9.82
2023-04-15T18:14:15.712Z,4.68
2023-04-15T18:16:49.812Z,11.68
2023-04-15T18:19:17.927Z,13.40
2023-04-15T18:21:45.444Z,9.57
2023-04-15T18:24:11.782Z,8.05
2023-04-15T18:26:38.163Z,8.07
2023-04-15T18:29:04.607Z,7.13
2023-04-15T18:31:31.748Z,5.97
2023-04-15T18:33:58.178Z,8.98
2023-04-15T18:36:24.564Z,8.43
2023-04-15T18:38:50.865Z,5.15
2023-04-15T18:41:17.230Z,4.22
2023-04-15T18:43:43.648Z,6.10
2023-04-15T18:46:12.284Z,7.32
2023-04-15T18:48:38.751Z,6.72
2023-04-15T18:51:05.136Z,4.47
2023-04-15T18:53:31.406Z,7.90
2023-04-15T18:55:58.066Z,6.25
2023-04-15T18:58:24.359Z,5.50
2023-04-15T19:00:50.674Z,6.88
2023-04-15T19:03:17.056Z,7.45
2023-04-15T19:05:43.486Z,7.72
2023-04-15T19:08:10.539Z,15.88
2023-04-15T19:10:36.855Z,3.58
2023-04-15T19:13:04.412Z,10.50
2023-04-15T19:15:30.890Z,7.57
2023-04-15T19:17:57.308Z,7.28
2023-04-15T19:20:23.586Z,9.82
2023-04-15T19:22:49.913Z,7.80
2023-04-15T19:25:16.487Z,8.40
2023-04-15T19:27:42.840Z,6.22
2023-04-15T19:30:09.190Z,7.32
2023-04-15T19:32:35.831Z,10.10
2023-04-15T19:35:02.199Z,8.75
2023-04-15T19:37:28.624Z,10.43
2023-04-15T19:39:55.053Z,6.25
2023-04-15T19:42:21.412Z,8.45
2023-04-15T19:44:47.704Z,6.57
2023-04-15T19:47:14.054Z,7.78
2023-04-15T19:49:40.571Z,8.05
2023-04-15T19:52:07.178Z,11.48
2023-04-15T19:54:33.542Z,13.85
2023-04-15T19:57:00.021Z,11.95
2023-04-15T19:59:27.658Z,10.20
2023-04-15T20:01:54.072Z,11.07
2023-04-15T20:04:20.678Z,6.57
2023-04-15T20:06:47.055Z,9.52
2023-04-15T20:09:13.412Z,14.85
2023-04-15T20:12:06.100Z,7.90
2023-04-15T20:14:26.465Z,8.85
2023-04-15T20:16:52.799Z,10.85
2023-04-15T20:19:19.106Z,8.98
2023-04-15T20:21:45.498Z,9.05
2023-04-15T20:24:11.829Z,9.55
2023-04-15T20:26:38.099Z,11.05
2023-04-15T20:29:04.683Z,8.18
2023-04-15T20:31:31.201Z,8.05
2023-04-15T20:33:57.520Z,10.48
2023-04-15T20:36:23.807Z,7.60
2023-04-15T20:38:50.094Z,8.93
2023-04-15T20:41:16.373Z,10.15
2023-04-15T20:43:42.662Z,8.77
2023-04-15T20:46:17.961Z,6.78
2023-04-15T20:48:47.661Z,5.68
2023-04-15T20:51:13.976Z,9.25
2023-04-15T20:53:41.965Z,10.10
2023-04-15T20:56:08.278Z,9.35
2023-04-15T20:58:34.538Z,9.07
2023-04-15T21:01:02.405Z,5.25
2023-04-15T21:03:28.945Z,8.02
2023-04-15T21:05:55.659Z,12.65
2023-04-15T21:08:29.068Z,12.18
2023-04-15T21:10:56.138Z,13.85
2023-04-15T21:13:22.895Z,13.88
2023-04-15T21:15:53.125Z,10.45
2023-04-15T21:18:20.712Z,10.70
2023-04-15T21:20:47.096Z,9.13
2023-04-15T21:23:16.088Z,14.68
2023-04-15T21:25:42.402Z,12.15
2023-04-15T21:28:08.938Z,11.00
2023-04-15T21:30:35.294Z,13.38
2023-04-15T21:33:02.119Z,10.20
2023-04-15T21:35:30.283Z,7.57
2023-04-15T21:37:56.548Z,9.30
2023-04-15T21:40:22.857Z,6.82
2023-04-15T21:42:49.701Z,10.52
2023-04-15T21:45:16.448Z,11.90
2023-04-15T21:48:07.291Z,7.88
2023-04-15T21:50:29.019Z,7.28
2023-04-15T21:52:55.439Z,8.45
2023-04-15T21:55:21.887Z,6.97
2023-04-15T21:57:48.208Z,6.30
2023-04-15T22:00:15.452Z,6.75
2023-04-15T22:02:41.872Z,4.97
2023-04-15T22:05:08.310Z,5.90
2023-04-15T22:07:34.639Z,7.53
2023-04-15T22:10:01.177Z,9.32
2023-04-15T22:12:27.491Z,6.05
2023-04-15T22:14:55.057Z,9.45
2023-04-15T22:17:21.357Z,8.52
2023-04-15T22:19:47.833Z,5.60
2023-04-15T22:22:14.137Z,5.22
2023-04-15T22:24:40.768Z,7.93
2023-04-15T22:27:07.804Z,13.10
2023-04-15T22:29:34.538Z,7.82
2023-04-15T22:32:01.174Z,12.75
2023-04-15T22:34:27.538Z,7.45
2023-04-15T22:36:53.878Z,7.05
2023-04-15T22:39:20.956Z,7.53
2023-04-15T22:41:47.531Z,8.63
2023-04-15T22:44:13.880Z,11.25
2023-04-15T22:46:40.361Z,9.48
2023-04-15T22:49:07.595Z,13.02
2023-04-15T22:51:33.981Z,11.20
2023-04-15T22:54:00.279Z,8.88
2023-04-15T22:56:26.541Z,9.65
2023-04-15T22:58:52.820Z,8.95
2023-04-15T23:01:19.216Z,12.27
2023-04-15T23:03:57.146Z,14.15
2023-04-15T23:06:32.365Z,13.73
2023-04-15T23:08:58.740Z,7.03
2023-04-15T23:11:25.111Z,10.70
2023-04-15T23:13:51.556Z,9.25
2023-04-15T23:16:17.983Z,10.18
2023-04-15T23:18:44.270Z,10.18
2023-04-15T23:21:10.548Z,9.65
2023-04-15T23:23:36.962Z,11.57
2023-04-15T23:26:04.207Z,11.82
2023-04-15T23:28:30.998Z,11.57
2023-04-15T23:31:00.187Z,15.18
2023-04-15T23:33:26.893Z,10.80
2023-04-15T23:35:53.267Z,8.15
2023-04-15T23:38:19.552Z,10.68
2023-04-15T23:40:46.028Z,8.73
2023-04-15T23:43:12.458Z,12.15
2023-04-15T23:45:40.136Z,8.88
2023-04-15T23:48:06.703Z,8.27
2023-04-15T23:50:33.076Z,8.77
2023-04-15T23:52:59.389Z,9.57
2023-04-15T23:55:25.974Z,11.35
2023-04-15T23:57:52.359Z,9.25
